sensor_id;sensor_type;location;lat;lon;timestamp;P1;durP1;ratioP1;P2;durP2;ratioP2
11957;SDS011;6039;52.576;13.348;2023-05-16T00:02:56;6.57;;;5.47;;
11957;SDS011;6039;52.576;13.348;2023-05-16T00:08:03;7.87;;;5.57;;
11957;SDS011;6039;52.576;13.348;2023-05-16T00:13:07;7.50;;;5.67;;
11957;SDS011;6039;52.576;13.348;2023-05-16T00:18:12;7.97;;;5.83;;
11957;SDS011;6039;52.576;13.348;2023-05-16T00:23:19;8.73;;;6.00;;
11957;SDS011;6039;52.576;13.348;2023-05-16T00:28:23;8.30;;;5.97;;
11957;SDS011;6039;52.576;13.348;2023-05-16T00:33:27;7.57;;;6.30;;
11957;SDS011;6039;52.576;13.348;2023-05-16T00:38:34;7.60;;;6.33;;
11957;SDS011;6039;52.576;13.348;2023-05-16T00:43:38;8.37;;;6.60;;
11957;SDS011;6039;52.576;13.348;2023-05-16T00:48:42;9.53;;;7.13;;
11957;SDS011;6039;52.576;13.348;2023-05-16T00:53:48;10.53;;;6.93;;
11957;SDS011;6039;52.576;13.348;2023-05-16T00:58:52;11.13;;;7.87;;
11957;SDS011;6039;52.576;13.348;2023-05-16T01:03:56;10.10;;;7.13;;
11957;SDS011;6039;52.576;13.348;2023-05-16T01:09:03;9.33;;;7.33;;
11957;SDS011;6039;52.576;13.348;2023-05-16T01:14:10;12.07;;;7.07;;
11957;SDS011;6039;52.576;13.348;2023-05-16T01:19:20;11.80;;;8.23;;
11957;SDS011;6039;52.576;13.348;2023-05-16T01:24:38;12.63;;;8.67;;
11957;SDS011;6039;52.576;13.348;2023-05-16T01:30:12;14.57;;;8.93;;
11957;SDS011;6039;52.576;13.348;2023-05-16T01:35:18;10.93;;;8.20;;
11957;SDS011;6039;52.576;13.348;2023-05-16T01:40:23;12.37;;;8.00;;
11957;SDS011;6039;52.576;13.348;2023-05-16T01:45:32;13.83;;;8.90;;
11957;SDS011;6039;52.576;13.348;2023-05-16T01:50:39;12.17;;;8.53;;
11957;SDS011;6039;52.576;13.348;2023-05-16T01:55:47;10.43;;;7.77;;
11957;SDS011;6039;52.576;13.348;2023-05-16T02:00:57;13.10;;;8.07;;
11957;SDS011;6039;52.576;13.348;2023-05-16T02:06:03;12.13;;;8.10;;
11957;SDS011;6039;52.576;13.348;2023-05-16T02:11:07;11.90;;;7.90;;
11957;SDS011;6039;52.576;13.348;2023-05-16T02:16:14;11.23;;;8.40;;
11957;SDS011;6039;52.576;13.348;2023-05-16T02:21:18;11.90;;;7.57;;
11957;SDS011;6039;52.576;13.348;2023-05-16T02:26:22;11.53;;;8.03;;
11957;SDS011;6039;52.576;13.348;2023-05-16T02:31:29;12.23;;;8.07;;
11957;SDS011;6039;52.576;13.348;2023-05-16T02:36:34;14.00;;;8.47;;
11957;SDS011;6039;52.576;13.348;2023-05-16T02:41:38;14.47;;;8.27;;
11957;SDS011;6039;52.576;13.348;2023-05-16T02:46:45;12.17;;;8.60;;
11957;SDS011;6039;52.576;13.348;2023-05-16T02:51:49;14.30;;;9.30;;
11957;SDS011;6039;52.576;13.348;2023-05-16T02:56:53;12.80;;;8.87;;
11957;SDS011;6039;52.576;13.348;2023-05-16T03:01:59;14.33;;;8.87;;
11957;SDS011;6039;52.576;13.348;2023-05-16T03:07:04;12.00;;;8.97;;
11957;SDS011;6039;52.576;13.348;2023-05-16T03:12:08;13.97;;;8.53;;
11957;SDS011;6039;52.576;13.348;2023-05-16T03:17:14;11.37;;;8.60;;
11957;SDS011;6039;52.576;13.348;2023-05-16T03:22:18;12.33;;;8.70;;
11957;SDS011;6039;52.576;13.348;2023-05-16T03:27:22;16.53;;;8.90;;
11957;SDS011;6039;52.576;13.348;2023-05-16T03:32:29;12.30;;;9.03;;
11957;SDS011;6039;52.576;13.348;2023-05-16T03:37:33;13.10;;;9.47;;
11957;SDS011;6039;52.576;13.348;2023-05-16T03:42:37;13.90;;;9.47;;
11957;SDS011;6039;52.576;13.348;2023-05-16T03:47:44;15.27;;;9.53;;
11957;SDS011;6039;52.576;13.348;2023-05-16T03:52:48;15.40;;;9.77;;
11957;SDS011;6039;52.576;13.348;2023-05-16T03:57:52;15.97;;;9.67;;
11957;SDS011;6039;52.576;13.348;2023-05-16T04:02:59;13.10;;;9.47;;
11957;SDS011;6039;52.576;13.348;2023-05-16T04:08:03;12.87;;;8.73;;
11957;SDS011;6039;52.576;13.348;2023-05-16T04:13:07;12.20;;;8.87;;
11957;SDS011;6039;52.576;13.348;2023-05-16T04:18:14;15.97;;;10.37;;
11957;SDS011;6039;52.576;13.348;2023-05-16T04:23:18;14.13;;;9.73;;
11957;SDS011;6039;52.576;13.348;2023-05-16T04:28:22;14.93;;;10.17;;
11957;SDS011;6039;52.576;13.348;2023-05-16T04:33:29;13.90;;;9.60;;
11957;SDS011;6039;52.576;13.348;2023-05-16T04:38:33;17.20;;;10.23;;
11957;SDS011;6039;52.576;13.348;2023-05-16T04:43:37;11.87;;;9.37;;
11957;SDS011;6039;52.576;13.348;2023-05-16T04:48:44;13.10;;;9.63;;
11957;SDS011;6039;52.576;13.348;2023-05-16T04:53:48;15.57;;;10.10;;
11957;SDS011;6039;52.576;13.348;2023-05-16T04:58:52;16.97;;;10.50;;
11957;SDS011;6039;52.576;13.348;2023-05-16T05:03:59;17.03;;;10.37;;
11957;SDS011;6039;52.576;13.348;2023-05-16T05:09:03;14.47;;;9.87;;
11957;SDS011;6039;52.576;13.348;2023-05-16T05:14:07;15.37;;;8.30;;
11957;SDS011;6039;52.576;13.348;2023-05-16T05:19:14;12.40;;;9.33;;
11957;SDS011;6039;52.576;13.348;2023-05-16T05:24:18;12.13;;;8.70;;
11957;SDS011;6039;52.576;13.348;2023-05-16T05:29:22;10.87;;;7.80;;
11957;SDS011;6039;52.576;13.348;2023-05-16T05:34:28;10.73;;;7.30;;
11957;SDS011;6039;52.576;13.348;2023-05-16T05:39:32;13.97;;;7.73;;
11957;SDS011;6039;52.576;13.348;2023-05-16T05:44:36;11.43;;;7.70;;
11957;SDS011;6039;52.576;13.348;2023-05-16T05:49:43;13.83;;;7.40;;
11957;SDS011;6039;52.576;13.348;2023-05-16T05:54:47;11.67;;;7.97;;
11957;SDS011;6039;52.576;13.348;2023-05-16T05:59:51;10.03;;;6.77;;
11957;SDS011;6039;52.576;13.348;2023-05-16T06:04:58;12.50;;;7.60;;
11957;SDS011;6039;52.576;13.348;2023-05-16T06:10:02;9.83;;;7.00;;
11957;SDS011;6039;52.576;13.348;2023-05-16T06:15:08;9.97;;;6.50;;
11957;SDS011;6039;52.576;13.348;2023-05-16T06:20:15;8.83;;;6.23;;
11957;SDS011;6039;52.576;13.348;2023-05-16T06:25:19;9.77;;;6.27;;
11957;SDS011;6039;52.576;13.348;2023-05-16T06:30:24;8.53;;;6.20;;
11957;SDS011;6039;52.576;13.348;2023-05-16T06:35:30;8.00;;;5.93;;
11957;SDS011;6039;52.576;13.348;2023-05-16T06:40:35;7.60;;;5.50;;
11957;SDS011;6039;52.576;13.348;2023-05-16T06:45:39;6.60;;;5.20;;
11957;SDS011;6039;52.576;13.348;2023-05-16T06:50:48;8.17;;;5.37;;
11957;SDS011;6039;52.576;13.348;2023-05-16T06:55:52;6.57;;;4.77;;
11957;SDS011;6039;52.576;13.348;2023-05-16T07:00:57;8.73;;;5.00;;
11957;SDS011;6039;52.576;13.348;2023-05-16T07:06:04;5.87;;;4.87;;
11957;SDS011;6039;52.576;13.348;2023-05-16T07:11:08;6.77;;;4.90;;
11957;SDS011;6039;52.576;13.348;2023-05-16T07:16:12;6.57;;;4.23;;
11957;SDS011;6039;52.576;13.348;2023-05-16T07:21:19;7.00;;;3.80;;
11957;SDS011;6039;52.576;13.348;2023-05-16T07:26:22;8.10;;;4.27;;
11957;SDS011;6039;52.576;13.348;2023-05-16T07:31:26;5.53;;;3.50;;
11957;SDS011;6039;52.576;13.348;2023-05-16T07:36:33;4.13;;;3.07;;
11957;SDS011;6039;52.576;13.348;2023-05-16T07:41:37;3.97;;;2.97;;
11957;SDS011;6039;52.576;13.348;2023-05-16T07:46:41;4.80;;;2.97;;
11957;SDS011;6039;52.576;13.348;2023-05-16T07:51:48;5.10;;;2.93;;
11957;SDS011;6039;52.576;13.348;2023-05-16T07:56:52;5.17;;;2.87;;
11957;SDS011;6039;52.576;13.348;2023-05-16T08:01:56;4.37;;;2.73;;
11957;SDS011;6039;52.576;13.348;2023-05-16T08:07:03;4.10;;;2.30;;
11957;SDS011;6039;52.576;13.348;2023-05-16T08:12:08;4.47;;;2.93;;
11957;SDS011;6039;52.576;13.348;2023-05-16T08:17:12;3.07;;;2.37;;
11957;SDS011;6039;52.576;13.348;2023-05-16T08:22:19;3.63;;;2.43;;
11957;SDS011;6039;52.576;13.348;2023-05-16T08:27:23;3.27;;;2.30;;
11957;SDS011;6039;52.576;13.348;2023-05-16T08:32:27;2.10;;;1.70;;
11957;SDS011;6039;52.576;13.348;2023-05-16T08:37:33;2.37;;;1.90;;
11957;SDS011;6039;52.576;13.348;2023-05-16T08:42:37;2.30;;;1.70;;
11957;SDS011;6039;52.576;13.348;2023-05-16T08:47:42;3.23;;;2.07;;
11957;SDS011;6039;52.576;13.348;2023-05-16T08:52:49;3.27;;;2.10;;
11957;SDS011;6039;52.576;13.348;2023-05-16T08:57:54;2.50;;;1.50;;
11957;SDS011;6039;52.576;13.348;2023-05-16T09:02:58;2.43;;;1.50;;
11957;SDS011;6039;52.576;13.348;2023-05-16T09:08:05;2.43;;;1.53;;
11957;SDS011;6039;52.576;13.348;2023-05-16T09:13:10;3.33;;;1.70;;
11957;SDS011;6039;52.576;13.348;2023-05-16T09:18:14;2.83;;;1.50;;
11957;SDS011;6039;52.576;13.348;2023-05-16T09:23:25;2.57;;;1.60;;
11957;SDS011;6039;52.576;13.348;2023-05-16T09:28:29;3.07;;;1.80;;
11957;SDS011;6039;52.576;13.348;2023-05-16T09:33:33;2.70;;;1.70;;
11957;SDS011;6039;52.576;13.348;2023-05-16T09:38:40;5.57;;;1.40;;
11957;SDS011;6039;52.576;13.348;2023-05-16T09:43:44;4.17;;;1.70;;
11957;SDS011;6039;52.576;13.348;2023-05-16T09:48:49;2.37;;;1.50;;
11957;SDS011;6039;52.576;13.348;2023-05-16T09:53:57;2.13;;;1.70;;
11957;SDS011;6039;52.576;13.348;2023-05-16T09:59:01;3.27;;;1.60;;
11957;SDS011;6039;52.576;13.348;2023-05-16T10:04:12;2.47;;;1.60;;
11957;SDS011;6039;52.576;13.348;2023-05-16T10:09:19;2.87;;;1.90;;
11957;SDS011;6039;52.576;13.348;2023-05-16T10:14:23;5.43;;;1.80;;
11957;SDS011;6039;52.576;13.348;2023-05-16T10:19:28;2.37;;;1.90;;
11957;SDS011;6039;52.576;13.348;2023-05-16T10:24:41;3.20;;;1.60;;
11957;SDS011;6039;52.576;13.348;2023-05-16T10:29:49;2.73;;;1.60;;
11957;SDS011;6039;52.576;13.348;2023-05-16T10:34:54;4.60;;;2.10;;
11957;SDS011;6039;52.576;13.348;2023-05-16T10:40:05;5.93;;;2.10;;
11957;SDS011;6039;52.576;13.348;2023-05-16T10:45:16;2.57;;;1.63;;
11957;SDS011;6039;52.576;13.348;2023-05-16T10:50:31;3.67;;;2.13;;
11957;SDS011;6039;52.576;13.348;2023-05-16T10:55:39;4.77;;;2.20;;
11957;SDS011;6039;52.576;13.348;2023-05-16T11:00:47;6.27;;;2.10;;
11957;SDS011;6039;52.576;13.348;2023-05-16T11:05:51;3.43;;;1.83;;
11957;SDS011;6039;52.576;13.348;2023-05-16T11:16:37;4.03;;;1.97;;
11957;SDS011;6039;52.576;13.348;2023-05-16T11:27:10;2.53;;;1.70;;
11957;SDS011;6039;52.576;13.348;2023-05-16T11:32:20;8.40;;;3.17;;
11957;SDS011;6039;52.576;13.348;2023-05-16T11:37:25;3.93;;;1.63;;
11957;SDS011;6039;52.576;13.348;2023-05-16T11:42:29;5.73;;;1.90;;
11957;SDS011;6039;52.576;13.348;2023-05-16T11:47:38;3.83;;;1.93;;
11957;SDS011;6039;52.576;13.348;2023-05-16T11:52:44;2.00;;;1.50;;
11957;SDS011;6039;52.576;13.348;2023-05-16T11:57:49;2.67;;;1.60;;
11957;SDS011;6039;52.576;13.348;2023-05-16T12:02:59;4.23;;;2.80;;
11957;SDS011;6039;52.576;13.348;2023-05-16T12:08:04;2.53;;;1.50;;
11957;SDS011;6039;52.576;13.348;2023-05-16T12:13:08;4.83;;;1.80;;
11957;SDS011;6039;52.576;13.348;2023-05-16T12:18:15;2.37;;;1.60;;
11957;SDS011;6039;52.576;13.348;2023-05-16T12:23:20;4.93;;;1.63;;
11957;SDS011;6039;52.576;13.348;2023-05-16T12:28:24;3.67;;;1.60;;
11957;SDS011;6039;52.576;13.348;2023-05-16T12:33:30;2.47;;;1.47;;
11957;SDS011;6039;52.576;13.348;2023-05-16T12:38:40;2.57;;;1.50;;
11957;SDS011;6039;52.576;13.348;2023-05-16T12:43:44;3.97;;;1.60;;
11957;SDS011;6039;52.576;13.348;2023-05-16T12:48:57;2.53;;;1.43;;
11957;SDS011;6039;52.576;13.348;2023-05-16T12:54:07;1.67;;;1.20;;
11957;SDS011;6039;52.576;13.348;2023-05-16T12:59:13;1.87;;;1.27;;
11957;SDS011;6039;52.576;13.348;2023-05-16T13:04:21;2.70;;;1.27;;
11957;SDS011;6039;52.576;13.348;2023-05-16T13:09:25;2.77;;;1.47;;
11957;SDS011;6039;52.576;13.348;2023-05-16T13:14:30;4.20;;;1.50;;
11957;SDS011;6039;52.576;13.348;2023-05-16T13:19:36;5.57;;;2.00;;
11957;SDS011;6039;52.576;13.348;2023-05-16T13:24:40;3.90;;;1.53;;
11957;SDS011;6039;52.576;13.348;2023-05-16T13:29:44;4.87;;;1.40;;
11957;SDS011;6039;52.576;13.348;2023-05-16T13:34:51;2.50;;;1.60;;
11957;SDS011;6039;52.576;13.348;2023-05-16T13:39:55;3.80;;;1.17;;
11957;SDS011;6039;52.576;13.348;2023-05-16T13:44:59;1.77;;;0.97;;
11957;SDS011;6039;52.576;13.348;2023-05-16T13:50:07;3.27;;;1.47;;
11957;SDS011;6039;52.576;13.348;2023-05-16T13:55:11;2.27;;;1.27;;
11957;SDS011;6039;52.576;13.348;2023-05-16T14:00:15;2.47;;;1.20;;
11957;SDS011;6039;52.576;13.348;2023-05-16T14:05:22;4.90;;;1.40;;
11957;SDS011;6039;52.576;13.348;2023-05-16T14:10:27;2.37;;;1.10;;
11957;SDS011;6039;52.576;13.348;2023-05-16T14:15:31;2.47;;;1.20;;
11957;SDS011;6039;52.576;13.348;2023-05-16T14:20:38;2.80;;;1.27;;
11957;SDS011;6039;52.576;13.348;2023-05-16T14:25:42;3.43;;;1.10;;
11957;SDS011;6039;52.576;13.348;2023-05-16T14:30:46;3.17;;;1.13;;
11957;SDS011;6039;52.576;13.348;2023-05-16T14:35:52;2.40;;;1.20;;
11957;SDS011;6039;52.576;13.348;2023-05-16T14:40:56;2.50;;;0.90;;
11957;SDS011;6039;52.576;13.348;2023-05-16T14:46:00;3.10;;;1.00;;
11957;SDS011;6039;52.576;13.348;2023-05-16T14:51:07;2.93;;;1.10;;
11957;SDS011;6039;52.576;13.348;2023-05-16T14:56:11;3.60;;;1.00;;
11957;SDS011;6039;52.576;13.348;2023-05-16T15:01:15;3.23;;;1.23;;
11957;SDS011;6039;52.576;13.348;2023-05-16T15:06:22;3.73;;;1.27;;
11957;SDS011;6039;52.576;13.348;2023-05-16T15:11:27;1.80;;;1.00;;
11957;SDS011;6039;52.576;13.348;2023-05-16T15:16:31;1.63;;;0.97;;
11957;SDS011;6039;52.576;13.348;2023-05-16T15:21:37;3.33;;;1.07;;
11957;SDS011;6039;52.576;13.348;2023-05-16T15:26:41;1.63;;;0.77;;
11957;SDS011;6039;52.576;13.348;2023-05-16T15:31:46;1.27;;;0.90;;
11957;SDS011;6039;52.576;13.348;2023-05-16T15:36:52;1.70;;;0.90;;
11957;SDS011;6039;52.576;13.348;2023-05-16T15:41:56;1.70;;;0.87;;
11957;SDS011;6039;52.576;13.348;2023-05-16T15:47:03;1.47;;;0.93;;
11957;SDS011;6039;52.576;13.348;2023-05-16T15:52:10;1.67;;;0.90;;
11957;SDS011;6039;52.576;13.348;2023-05-16T15:57:14;1.93;;;0.80;;
11957;SDS011;6039;52.576;13.348;2023-05-16T16:02:18;2.90;;;0.83;;
11957;SDS011;6039;52.576;13.348;2023-05-16T16:07:25;3.80;;;0.97;;
11957;SDS011;6039;52.576;13.348;2023-05-16T16:12:29;1.67;;;1.00;;
11957;SDS011;6039;52.576;13.348;2023-05-16T16:17:33;1.33;;;0.97;;
11957;SDS011;6039;52.576;13.348;2023-05-16T16:22:39;1.93;;;0.93;;
11957;SDS011;6039;52.576;13.348;2023-05-16T16:27:43;2.77;;;0.83;;
11957;SDS011;6039;52.576;13.348;2023-05-16T16:32:47;1.60;;;0.73;;
11957;SDS011;6039;52.576;13.348;2023-05-16T16:37:54;3.00;;;0.90;;
11957;SDS011;6039;52.576;13.348;2023-05-16T16:42:58;1.87;;;0.83;;
11957;SDS011;6039;52.576;13.348;2023-05-16T16:48:05;2.20;;;0.80;;
11957;SDS011;6039;52.576;13.348;2023-05-16T16:53:12;1.93;;;0.80;;
11957;SDS011;6039;52.576;13.348;2023-05-16T16:58:16;3.63;;;1.00;;
11957;SDS011;6039;52.576;13.348;2023-05-16T17:03:20;3.10;;;1.20;;
11957;SDS011;6039;52.576;13.348;2023-05-16T17:08:27;1.90;;;0.90;;
11957;SDS011;6039;52.576;13.348;2023-05-16T17:13:31;2.97;;;0.90;;
11957;SDS011;6039;52.576;13.348;2023-05-16T17:18:36;3.13;;;1.00;;
11957;SDS011;6039;52.576;13.348;2023-05-16T17:23:44;1.33;;;0.80;;
11957;SDS011;6039;52.576;13.348;2023-05-16T17:28:49;1.50;;;0.80;;
11957;SDS011;6039;52.576;13.348;2023-05-16T17:33:53;2.23;;;0.87;;
11957;SDS011;6039;52.576;13.348;2023-05-16T17:39:00;1.60;;;0.70;;
11957;SDS011;6039;52.576;13.348;2023-05-16T17:44:07;3.47;;;0.90;;
11957;SDS011;6039;52.576;13.348;2023-05-16T17:49:11;2.07;;;0.90;;
11957;SDS011;6039;52.576;13.348;2023-05-16T17:54:19;1.13;;;1.00;;
11957;SDS011;6039;52.576;13.348;2023-05-16T17:59:26;3.20;;;0.90;;
11957;SDS011;6039;52.576;13.348;2023-05-16T18:04:30;2.67;;;1.40;;
11957;SDS011;6039;52.576;13.348;2023-05-16T18:09:37;1.73;;;1.00;;
11957;SDS011;6039;52.576;13.348;2023-05-16T18:14:41;0.97;;;0.73;;
11957;SDS011;6039;52.576;13.348;2023-05-16T18:19:45;3.33;;;1.27;;
11957;SDS011;6039;52.576;13.348;2023-05-16T18:24:52;1.53;;;0.73;;
11957;SDS011;6039;52.576;13.348;2023-05-16T18:29:56;2.10;;;0.90;;
11957;SDS011;6039;52.576;13.348;2023-05-16T18:35:00;3.20;;;1.10;;
11957;SDS011;6039;52.576;13.348;2023-05-16T18:40:07;1.67;;;1.03;;
11957;SDS011;6039;52.576;13.348;2023-05-16T18:45:12;1.53;;;1.10;;
11957;SDS011;6039;52.576;13.348;2023-05-16T18:50:16;2.43;;;1.03;;
11957;SDS011;6039;52.576;13.348;2023-05-16T18:55:23;4.37;;;1.10;;
11957;SDS011;6039;52.576;13.348;2023-05-16T19:00:27;2.13;;;0.80;;
11957;SDS011;6039;52.576;13.348;2023-05-16T19:05:31;3.20;;;0.90;;
11957;SDS011;6039;52.576;13.348;2023-05-16T19:10:38;2.37;;;1.23;;
11957;SDS011;6039;52.576;13.348;2023-05-16T19:15:42;2.23;;;1.00;;
11957;SDS011;6039;52.576;13.348;2023-05-16T19:20:46;1.97;;;1.00;;
11957;SDS011;6039;52.576;13.348;2023-05-16T19:25:53;2.23;;;0.97;;
11957;SDS011;6039;52.576;13.348;2023-05-16T19:30:57;0.97;;;0.73;;
11957;SDS011;6039;52.576;13.348;2023-05-16T19:36:01;1.20;;;0.97;;
11957;SDS011;6039;52.576;13.348;2023-05-16T19:41:09;2.03;;;1.27;;
11957;SDS011;6039;52.576;13.348;2023-05-16T19:46:13;1.80;;;0.90;;
11957;SDS011;6039;52.576;13.348;2023-05-16T19:51:17;2.90;;;0.90;;
11957;SDS011;6039;52.576;13.348;2023-05-16T19:56:25;1.13;;;0.80;;
11957;SDS011;6039;52.576;13.348;2023-05-16T20:01:29;2.43;;;0.90;;
11957;SDS011;6039;52.576;13.348;2023-05-16T20:06:33;0.70;;;0.70;;
11957;SDS011;6039;52.576;13.348;2023-05-16T20:11:40;1.87;;;0.90;;
11957;SDS011;6039;52.576;13.348;2023-05-16T20:16:44;1.60;;;1.00;;
11957;SDS011;6039;52.576;13.348;2023-05-16T20:21:48;3.00;;;0.97;;
11957;SDS011;6039;52.576;13.348;2023-05-16T20:26:54;4.00;;;1.40;;
11957;SDS011;6039;52.576;13.348;2023-05-16T20:31:58;2.50;;;1.13;;
11957;SDS011;6039;52.576;13.348;2023-05-16T20:37:03;1.27;;;0.80;;
11957;SDS011;6039;52.576;13.348;2023-05-16T20:42:09;4.13;;;1.30;;
11957;SDS011;6039;52.576;13.348;2023-05-16T20:47:13;2.83;;;1.10;;
11957;SDS011;6039;52.576;13.348;2023-05-16T20:52:18;1.60;;;0.90;;
11957;SDS011;6039;52.576;13.348;2023-05-16T20:57:25;1.73;;;0.93;;
11957;SDS011;6039;52.576;13.348;2023-05-16T21:02:29;2.07;;;0.73;;
11957;SDS011;6039;52.576;13.348;2023-05-16T21:07:33;1.40;;;1.00;;
11957;SDS011;6039;52.576;13.348;2023-05-16T21:12:40;2.60;;;1.00;;
11957;SDS011;6039;52.576;13.348;2023-05-16T21:17:44;2.20;;;1.03;;
11957;SDS011;6039;52.576;13.348;2023-05-16T21:22:48;2.50;;;1.20;;
11957;SDS011;6039;52.576;13.348;2023-05-16T21:27:54;2.20;;;1.03;;
11957;SDS011;6039;52.576;13.348;2023-05-16T21:32:59;1.13;;;1.00;;
11957;SDS011;6039;52.576;13.348;2023-05-16T21:38:03;1.43;;;1.03;;
11957;SDS011;6039;52.576;13.348;2023-05-16T21:43:10;1.47;;;0.80;;
11957;SDS011;6039;52.576;13.348;2023-05-16T21:48:14;1.23;;;0.90;;
11957;SDS011;6039;52.576;13.348;2023-05-16T21:53:18;1.30;;;0.97;;
11957;SDS011;6039;52.576;13.348;2023-05-16T21:58:26;3.33;;;1.20;;
11957;SDS011;6039;52.576;13.348;2023-05-16T22:03:30;3.37;;;0.77;;
11957;SDS011;6039;52.576;13.348;2023-05-16T22:08:34;2.03;;;0.77;;
11957;SDS011;6039;52.576;13.348;2023-05-16T22:13:40;3.53;;;1.20;;
11957;SDS011;6039;52.576;13.348;2023-05-16T22:18:44;2.90;;;1.00;;
11957;SDS011;6039;52.576;13.348;2023-05-16T22:23:48;2.07;;;1.00;;
11957;SDS011;6039;52.576;13.348;2023-05-16T22:28:55;1.53;;;0.93;;
11957;SDS011;6039;52.576;13.348;2023-05-16T22:33:59;1.10;;;1.00;;
11957;SDS011;6039;52.576;13.348;2023-05-16T22:39:03;2.70;;;1.13;;
11957;SDS011;6039;52.576;13.348;2023-05-16T22:44:10;1.43;;;0.70;;
11957;SDS011;6039;52.576;13.348;2023-05-16T22:49:14;2.20;;;0.87;;
11957;SDS011;6039;52.576;13.348;2023-05-16T22:54:18;1.90;;;1.20;;
11957;SDS011;6039;52.576;13.348;2023-05-16T22:59:25;1.30;;;0.90;;
11957;SDS011;6039;52.576;13.348;2023-05-16T23:04:29;1.83;;;1.17;;
11957;SDS011;6039;52.576;13.348;2023-05-16T23:09:33;2.33;;;1.00;;
11957;SDS011;6039;52.576;13.348;2023-05-16T23:14:40;2.30;;;1.20;;
11957;SDS011;6039;52.576;13.348;2023-05-16T23:19:44;2.90;;;1.00;;
11957;SDS011;6039;52.576;13.348;2023-05-16T23:24:48;1.87;;;0.90;;
11957;SDS011;6039;52.576;13.348;2023-05-16T23:29:54;1.97;;;1.30;;
11957;SDS011;6039;52.576;13.348;2023-05-16T23:34:58;2.20;;;1.17;;
11957;SDS011;6039;52.576;13.348;2023-05-16T23:40:02;3.47;;;1.30;;
11957;SDS011;6039;52.576;13.348;2023-05-16T23:45:10;2.40;;;1.27;;
11957;SDS011;6039;52.576;13.348;2023-05-16T23:50:14;2.40;;;1.30;;
11957;SDS011;6039;52.576;13.348;2023-05-16T23:55:20;2.13;;;1.13;;
